Time;durP1;ratioP1;P1;durP2;ratioP2;P2;SDS_P1;SDS_P2;PMS_P1;PMS_P2;Temp;Humidity;BMP_temperature;BMP_pressure;BME280_temperature;BME280_humidity;BME280_pressure;Samples;Min_cycle;Max_cycle;Signal;HPM_P1;HPM_P2
2022/03/04 00:00:46;;;;;;;17.20;9.88;;;;;;;16.38;31.21;93186.03;4920840;28;20536;-93
2022/03/04 00:03:11;;;;;;;20.05;10.52;;;;;;;16.36;31.17;93191.22;4952033;28;20046;-88
2022/03/04 00:05:38;;;;;;;15.35;10.48;;;;;;;16.37;31.39;93181.81;4952346;28;20393;-89
2022/03/04 00:08:03;;;;;;;15.27;9.88;;;;;;;16.36;31.24;93178.34;4920340;28;20027;-88
2022/03/04 00:10:29;;;;;;;16.17;10.00;;;;;;;16.35;31.27;93187.75;4935929;28;20046;-87
2022/03/04 00:12:54;;;;;;;15.25;9.65;;;;;;;16.36;31.45;93189.25;4917219;29;20036;-87
2022/03/04 00:15:20;;;;;;;17.35;10.02;;;;;;;16.36;31.15;93183.78;4932503;29;20046;-88
2022/03/04 00:17:46;;;;;;;16.42;9.90;;;;;;;16.37;31.39;93179.81;4917569;29;20392;-87
2022/03/04 00:20:11;;;;;;;15.55;9.82;;;;;;;16.35;31.47;93192.47;4916768;29;20046;-88
2022/03/04 00:22:37;;;;;;;15.77;10.45;;;;;;;16.33;31.02;93192.97;4932059;29;20051;-88
2022/03/04 00:25:03;;;;;;;14.27;9.02;;;;;;;16.35;31.59;93189.75;4917363;29;20039;-88
2022/03/04 00:27:29;;;;;;;17.40;9.90;;;;;;;16.38;31.53;93197.66;4933168;29;20035;-90
2022/03/04 00:29:54;;;;;;;13.55;9.38;;;;;;;16.34;31.22;93194.47;4932895;29;20046;-88
2022/03/04 00:32:20;;;;;;;16.52;9.63;;;;;;;16.34;31.39;93193.72;4950228;28;20043;-88
2022/03/04 00:34:45;;;;;;;14.95;9.25;;;;;;;16.34;31.26;93194.47;4936358;28;20057;-88
2022/03/04 00:37:10;;;;;;;14.77;9.13;;;;;;;16.37;31.16;93192.72;4917257;28;20501;-88
2022/03/04 00:39:36;;;;;;;15.40;9.07;;;;;;;16.35;31.40;93198.66;4931522;28;20035;-89
2022/03/04 00:42:01;;;;;;;15.23;9.27;;;;;;;16.36;31.14;93194.69;4951430;28;20039;-88
2022/03/04 00:44:27;;;;;;;13.85;9.50;;;;;;;16.37;31.23;93190.00;4931842;29;20035;-92
2022/03/04 00:46:52;;;;;;;13.60;8.63;;;;;;;16.35;31.04;93190.50;4929440;28;20045;-88
2022/03/04 00:49:17;;;;;;;13.68;8.93;;;;;;;16.34;31.31;93196.44;4935528;28;20490;-89
2022/03/04 00:51:43;;;;;;;13.52;8.65;;;;;;;16.34;31.31;93197.19;4935545;28;20051;-88
2022/03/04 00:54:09;;;;;;;12.65;8.35;;;;;;;16.33;31.62;93192.97;4934997;28;20031;-88
2022/03/04 00:56:36;;;;;;;12.95;8.45;;;;;;;16.33;31.07;93192.97;4936076;28;20051;-88
2022/03/04 00:59:02;;;;;;;12.95;8.05;;;;;;;16.38;31.04;93194.19;4936318;28;20043;-88
2022/03/04 01:01:27;;;;;;;12.50;8.60;;;;;;;16.35;31.46;93187.03;4935236;28;20410;-88
2022/03/04 01:03:53;;;;;;;11.85;8.05;;;;;;;16.34;31.47;93185.53;4934188;29;20372;-92
2022/03/04 01:06:18;;;;;;;13.27;8.75;;;;;;;16.33;31.39;93184.78;4900447;29;20130;-89
2022/03/04 01:08:44;;;;;;;11.52;7.68;;;;;;;16.32;31.28;93177.84;4921019;29;20043;-88
2022/03/04 01:11:09;;;;;;;14.52;8.88;;;;;;;16.36;31.05;93174.88;4905431;28;20039;-88
2022/03/04 01:13:34;;;;;;;12.70;7.88;;;;;;;16.32;31.15;93166.19;4955144;28;20038;-88
2022/03/04 01:16:00;;;;;;;14.32;8.15;;;;;;;16.32;31.23;93168.94;4939587;28;20031;-91
2022/03/04 01:18:25;;;;;;;11.27;7.93;;;;;;;16.34;31.67;93166.44;4972436;28;20038;-88
2022/03/04 01:20:52;;;;;;;12.73;8.43;;;;;;;16.31;31.15;93162.72;4938676;28;20049;-92
2022/03/04 01:23:17;;;;;;;10.95;7.70;;;;;;;16.31;31.33;93156.53;4933649;29;20024;-88
2022/03/04 01:25:42;;;;;;;13.80;7.28;;;;;;;16.30;31.37;93155.78;4939100;28;20544;-88
2022/03/04 01:28:08;;;;;;;11.23;7.50;;;;;;;16.30;31.36;93155.78;4954958;28;20042;-88
2022/03/04 01:30:33;;;;;;;11.65;7.38;;;;;;;16.34;31.32;93153.53;4923136;28;20030;-89
2022/03/04 01:32:59;;;;;;;10.13;7.15;;;;;;;16.32;31.29;93147.09;4955077;28;20547;-88
2022/03/04 01:35:24;;;;;;;11.80;7.55;;;;;;;16.38;31.36;93158.72;4922343;28;20031;-93
2022/03/04 01:37:49;;;;;;;11.35;7.65;;;;;;;16.33;31.26;93154.03;4923472;28;20082;-90
2022/03/04 01:40:15;;;;;;;11.60;7.68;;;;;;;16.31;31.35;93143.63;4922928;28;20043;-92
2022/03/04 01:42:40;;;;;;;11.55;7.47;;;;;;;16.30;31.40;93144.88;4927504;29;20041;-91
2022/03/04 01:45:07;;;;;;;11.40;7.43;;;;;;;16.30;31.33;93147.59;4910190;28;20035;-90
2022/03/04 01:47:33;;;;;;;12.32;7.72;;;;;;;16.30;31.28;93141.41;4935123;29;20043;-87
2022/03/04 01:49:58;;;;;;;14.15;9.00;;;;;;;16.27;31.22;93145.13;4919552;29;20035;-88
2022/03/04 01:52:23;;;;;;;11.00;6.93;;;;;;;16.31;31.36;93149.09;4903222;29;20038;-91
2022/03/04 01:54:49;;;;;;;11.85;7.82;;;;;;;16.32;31.33;93134.22;4925946;28;20054;-88
2022/03/04 01:57:14;;;;;;;10.35;7.38;;;;;;;16.31;31.46;93146.38;4938008;28;20039;-88
2022/03/04 01:59:43;;;;;;;9.50;7.55;;;;;;;16.30;31.59;93144.13;4954917;28;20035;-89
2022/03/04 02:02:10;;;;;;;11.32;7.35;;;;;;;16.29;31.29;93137.94;4938178;28;20050;-88
2022/03/04 02:04:35;;;;;;;9.13;6.10;;;;;;;16.30;31.15;93138.69;4938066;28;20035;-87
2022/03/04 02:07:00;;;;;;;10.02;7.35;;;;;;;16.31;31.32;93140.16;4938261;28;20552;-87
2022/03/04 02:09:26;;;;;;;13.15;7.32;;;;;;;16.28;31.48;93139.19;4930609;29;20051;-87
2022/03/04 02:11:51;;;;;;;12.05;7.10;;;;;;;16.28;31.25;93135.72;4903210;29;20455;-87
2022/03/04 02:14:17;;;;;;;9.93;6.88;;;;;;;16.30;31.33;93133.97;4919574;29;20070;-88
2022/03/04 02:16:47;;;;;;;10.35;6.93;;;;;;;16.29;31.54;93127.03;4912434;29;20036;-87
2022/03/04 02:19:13;;;;;;;12.88;6.68;;;;;;;16.34;31.24;93133.72;4884230;29;20118;-88
2022/03/04 02:21:46;;;;;;;9.98;6.70;;;;;;;16.29;31.56;93129.00;4884395;29;20031;-88
2022/03/04 02:24:12;;;;;;;12.60;7.32;;;;;;;16.34;31.26;93125.53;4884908;29;20035;-87
2022/03/04 02:26:37;;;;;;;9.88;6.75;;;;;;;16.31;31.41;93134.72;4915052;29;20057;-87
2022/03/04 02:29:03;;;;;;;11.45;6.65;;;;;;;16.29;31.26;93127.03;4934558;29;20566;-88
2022/03/04 02:31:28;;;;;;;11.52;7.05;;;;;;;16.28;31.55;93122.06;4919196;29;20036;-92
2022/03/04 02:33:53;;;;;;;9.98;7.10;;;;;;;16.29;31.36;93120.81;4934953;29;20047;-87
2022/03/04 02:36:19;;;;;;;10.05;6.65;;;;;;;16.28;31.35;93122.06;4918500;29;20414;-87
2022/03/04 02:38:44;;;;;;;10.23;6.55;;;;;;;16.27;31.50;93118.59;4918846;29;20050;-87
2022/03/04 02:41:10;;;;;;;8.45;6.30;;;;;;;16.25;31.29;93123.81;4902338;29;20043;-87
2022/03/04 02:43:35;;;;;;;12.75;6.53;;;;;;;16.28;31.20;93124.81;4901185;29;20035;-88
2022/03/04 02:46:00;;;;;;;9.85;6.35;;;;;;;16.26;31.47;93124.56;4900207;29;20035;-87
2022/03/04 02:48:26;;;;;;;10.55;6.32;;;;;;;16.28;31.62;93131.00;4931575;29;20451;-90
2022/03/04 02:50:51;;;;;;;11.82;6.45;;;;;;;16.33;31.34;93130.22;4883950;29;20043;-90
2022/03/04 02:53:17;;;;;;;10.57;7.00;;;;;;;16.29;31.17;93134.47;4927289;29;20040;-89
2022/03/04 02:55:42;;;;;;;11.02;6.40;;;;;;;16.26;31.21;93130.75;4933987;29;20051;-87
2022/03/04 02:58:07;;;;;;;10.30;6.25;;;;;;;16.25;31.32;93129.28;4902102;29;20035;-87
2022/03/04 03:00:33;;;;;;;11.30;6.60;;;;;;;16.26;31.42;93124.56;4918253;29;20483;-91
2022/03/04 03:02:58;;;;;;;9.30;6.10;;;;;;;16.25;31.33;93136.72;4917982;29;20399;-88
2022/03/04 03:05:24;;;;;;;10.63;6.70;;;;;;;16.25;31.59;93136.72;4918079;29;20032;-90
2022/03/04 03:07:49;;;;;;;12.02;6.95;;;;;;;16.24;31.55;93130.53;4934579;29;20043;-93
2022/03/04 03:10:15;;;;;;;11.15;5.88;;;;;;;16.23;31.31;93117.41;4931384;28;20414;-88
2022/03/04 03:12:40;;;;;;;10.02;6.75;;;;;;;16.23;31.47;93128.31;4920827;28;20038;-88
2022/03/04 03:15:06;;;;;;;8.50;6.03;;;;;;;16.25;31.28;93123.81;4937017;28;20059;-87
2022/03/04 03:17:33;;;;;;;8.35;5.85;;;;;;;16.24;31.44;93132.53;4916352;29;20086;-88
2022/03/04 03:19:58;;;;;;;9.30;6.07;;;;;;;16.24;31.55;93135.25;4917941;29;20050;-87
2022/03/04 03:22:24;;;;;;;8.30;6.40;;;;;;;16.25;31.21;93128.53;4901338;29;20035;-90
2022/03/04 03:24:49;;;;;;;9.07;6.30;;;;;;;16.23;31.00;93131.78;4902566;29;20043;-89
2022/03/04 03:27:15;;;;;;;8.05;6.05;;;;;;;16.23;31.30;93129.06;4926034;28;20042;-91
2022/03/04 03:29:40;;;;;;;9.45;6.20;;;;;;;16.24;31.41;93132.53;4936507;28;20031;-91
2022/03/04 03:32:06;;;;;;;8.00;6.10;;;;;;;16.21;31.42;93128.81;4936301;28;20043;-88
2022/03/04 03:34:32;;;;;;;9.63;6.57;;;;;;;16.24;31.50;93133.25;4921487;28;20097;-90
2022/03/04 03:36:57;;;;;;;9.73;6.03;;;;;;;16.22;31.44;93133.03;4946401;29;20039;-88
2022/03/04 03:39:23;;;;;;;9.10;6.25;;;;;;;16.23;31.33;93131.78;4917476;29;20054;-87
2022/03/04 03:41:48;;;;;;;11.38;6.20;;;;;;;16.24;31.29;93133.25;4923189;28;20398;-90
2022/03/04 03:44:13;;;;;;;10.35;6.82;;;;;;;16.22;31.26;93135.75;4936087;28;20062;-91
2022/03/04 03:46:39;;;;;;;9.18;6.45;;;;;;;16.22;31.33;93133.03;4927241;28;20445;-88
2022/03/04 03:49:05;;;;;;;10.00;6.85;;;;;;;16.25;31.29;93133.97;4935975;28;20043;-88
2022/03/04 03:51:30;;;;;;;8.77;5.60;;;;;;;16.23;31.55;93133.78;4921559;28;20031;-90
2022/03/04 03:53:56;;;;;;;10.30;6.25;;;;;;;16.19;31.47;93134.03;4920406;28;20377;-88
2022/03/04 03:56:21;;;;;;;11.60;6.32;;;;;;;16.22;31.32;93138.47;4936220;28;20047;-88
2022/03/04 03:58:46;;;;;;;9.52;6.05;;;;;;;16.22;31.44;93138.47;4933184;29;20446;-88
2022/03/04 04:01:12;;;;;;;9.98;5.57;;;;;;;16.22;31.47;93143.19;4917013;29;20051;-88
2022/03/04 04:03:37;;;;;;;9.68;6.05;;;;;;;16.21;31.31;93153.38;4903183;29;20074;-87
2022/03/04 04:06:03;;;;;;;10.68;6.15;;;;;;;16.25;31.38;93150.34;4916937;29;20047;-88
2022/03/04 04:08:28;;;;;;;10.63;5.90;;;;;;;16.23;31.12;93155.59;4928600;28;20089;-88
2022/03/04 04:10:54;;;;;;;8.90;5.55;;;;;;;16.22;31.30;93154.09;4936327;28;20038;-88
2022/03/04 04:13:19;;;;;;;10.70;6.28;;;;;;;16.23;31.49;93150.13;4935728;28;20402;-88
2022/03/04 04:15:45;;;;;;;8.75;5.55;;;;;;;16.23;31.30;93161.78;4930883;29;20082;-92
2022/03/04 04:18:10;;;;;;;8.40;6.22;;;;;;;16.21;31.20;93156.09;4916498;29;20039;-87
2022/03/04 04:20:36;;;;;;;9.00;5.93;;;;;;;16.23;31.63;93164.50;4917536;29;20054;-88
2022/03/04 04:23:01;;;;;;;7.32;5.20;;;;;;;16.22;31.16;93162.28;4920553;28;20035;-87
2022/03/04 04:25:26;;;;;;;10.85;5.68;;;;;;;16.22;31.65;93170.47;4968163;28;20495;-87
2022/03/04 04:27:52;;;;;;;10.10;6.22;;;;;;;16.22;31.34;93175.94;4951742;28;20046;-88
2022/03/04 04:30:17;;;;;;;8.48;6.05;;;;;;;16.20;30.95;93167.50;4919750;28;20049;-88
2022/03/04 04:32:43;;;;;;;8.48;6.18;;;;;;;16.19;31.64;93180.41;4919912;28;20042;-88
2022/03/04 04:35:09;;;;;;;9.43;5.75;;;;;;;16.20;31.43;93172.97;4919900;28;20162;-93
2022/03/04 04:37:34;;;;;;;8.18;5.88;;;;;;;16.19;31.65;93174.94;4936405;28;20494;-91
2022/03/04 04:39:59;;;;;;;8.80;5.95;;;;;;;16.20;31.58;93187.34;4917255;29;20043;-88
2022/03/04 04:42:25;;;;;;;10.27;5.78;;;;;;;16.22;31.45;93189.56;4927000;29;20046;-88
2022/03/04 04:44:50;;;;;;;8.23;5.57;;;;;;;16.19;31.57;93180.41;4920418;29;20031;-87
2022/03/04 04:47:16;;;;;;;10.13;6.13;;;;;;;16.17;31.60;93188.34;4938004;28;20039;-87
2022/03/04 04:49:41;;;;;;;9.63;6.20;;;;;;;16.21;31.29;93188.06;4927501;29;20460;-88
2022/03/04 04:52:07;;;;;;;10.02;6.43;;;;;;;16.19;31.65;93183.13;4920649;29;20040;-91
2022/03/04 04:54:33;;;;;;;7.40;5.40;;;;;;;16.16;31.14;93189.56;4920716;29;20035;-89
2022/03/04 04:56:58;;;;;;;8.68;5.45;;;;;;;16.16;31.67;93191.56;4921343;29;20566;-92
2022/03/04 04:59:24;;;;;;;7.68;5.47;;;;;;;16.17;31.48;93184.88;4913503;28;20035;-89
2022/03/04 05:01:49;;;;;;;9.50;5.80;;;;;;;16.15;31.55;93177.19;4939734;28;20068;-93
2022/03/04 05:04:15;;;;;;;8.57;5.25;;;;;;;16.17;31.59;93171.22;4938854;28;20097;-89
2022/03/04 05:06:40;;;;;;;9.45;5.32;;;;;;;16.15;31.45;93179.91;4972288;28;20043;-87
2022/03/04 05:09:05;;;;;;;9.02;6.03;;;;;;;16.17;31.25;93182.88;4935139;29;20398;-88
2022/03/04 05:11:31;;;;;;;9.13;5.70;;;;;;;16.16;31.53;93173.22;4919927;29;20245;-88
2022/03/04 05:13:56;;;;;;;7.40;5.20;;;;;;;16.16;31.42;93175.94;4920745;29;20047;-88
2022/03/04 05:16:22;;;;;;;9.57;5.68;;;;;;;16.16;31.08;93180.66;4936022;29;20512;-87
2022/03/04 05:18:47;;;;;;;11.75;5.68;;;;;;;16.16;31.43;93169.75;4921572;28;20043;-87
2022/03/04 05:21:12;;;;;;;9.55;5.53;;;;;;;16.17;31.38;93176.69;4938696;28;20042;-88
2022/03/04 05:26:22;;;;;;;7.78;5.60;;;;;;;16.14;31.29;93177.69;4924897;29;20102;-90
2022/03/04 05:28:47;;;;;;;8.45;5.55;;;;;;;16.15;31.56;93168.25;4921065;28;20036;-88
2022/03/04 05:31:13;;;;;;;7.50;5.72;;;;;;;16.21;31.42;93171.72;4922713;28;20042;-90
2022/03/04 05:33:38;;;;;;;7.22;5.32;;;;;;;16.17;31.38;93184.88;4955428;28;20038;-89
2022/03/04 05:36:04;;;;;;;7.82;5.35;;;;;;;16.18;31.45;93184.38;4941264;28;20045;-89
2022/03/04 05:38:29;;;;;;;7.47;5.30;;;;;;;16.15;31.17;93181.91;4941853;28;20406;-89
2022/03/04 05:40:55;;;;;;;8.82;5.60;;;;;;;16.20;31.30;93189.31;4957413;28;20043;-89
2022/03/04 05:43:20;;;;;;;8.15;5.13;;;;;;;16.20;31.46;93197.50;4956076;28;20608;-89
2022/03/04 05:45:46;;;;;;;8.88;5.13;;;;;;;16.23;31.17;93199.22;4927679;28;20038;-88
2022/03/04 05:48:11;;;;;;;8.50;5.22;;;;;;;16.17;31.39;93193.78;4929861;28;20035;-88
2022/03/04 05:50:37;;;;;;;7.40;5.10;;;;;;;16.21;31.30;93194.28;4945550;28;20082;-87
2022/03/04 05:53:02;;;;;;;7.22;5.00;;;;;;;16.14;31.20;93200.25;4924876;29;20039;-89
2022/03/04 05:55:28;;;;;;;8.82;5.90;;;;;;;16.21;31.05;93202.47;4937865;29;20349;-94
2022/03/04 05:57:53;;;;;;;9.95;5.15;;;;;;;16.24;31.05;93203.44;4935209;29;20578;-90
2022/03/04 06:00:19;;;;;;;8.07;5.20;;;;;;;16.24;31.30;93195.97;4943763;28;20714;-90
2022/03/04 06:02:44;;;;;;;7.70;5.03;;;;;;;16.24;30.97;93211.63;4938754;28;20050;-88
2022/03/04 06:05:09;;;;;;;6.22;4.53;;;;;;;16.26;31.12;93206.38;4938109;28;20839;-87
2022/03/04 06:07:36;;;;;;;6.63;4.82;;;;;;;16.24;31.12;93206.16;4938922;28;20054;-87
2022/03/04 06:10:02;;;;;;;8.65;4.38;;;;;;;16.23;31.09;93205.44;4937561;28;20046;-87
2022/03/04 06:12:28;;;;;;;6.65;4.55;;;;;;;16.26;31.36;93217.28;4921780;28;20062;-91
2022/03/04 06:14:53;;;;;;;6.28;4.20;;;;;;;16.26;31.15;93222.75;4938049;28;20049;-87
2022/03/04 06:17:19;;;;;;;8.10;4.32;;;;;;;16.26;31.17;93217.28;4934776;28;20441;-87
2022/03/04 06:19:44;;;;;;;8.30;5.05;;;;;;;16.25;31.31;93221.25;4934350;28;20066;-91
2022/03/04 06:22:10;;;;;;;7.20;4.57;;;;;;;16.29;30.95;93219.03;4933755;28;20035;-88
2022/03/04 06:24:35;;;;;;;7.00;4.53;;;;;;;16.31;30.89;93209.09;4918197;29;20035;-90
2022/03/04 06:27:01;;;;;;;4.95;3.95;;;;;;;16.30;31.21;93220.50;4903444;29;20051;-89
2022/03/04 06:29:26;;;;;;;4.85;3.75;;;;;;;16.32;31.09;93221.50;4902968;29;20090;-89
2022/03/04 06:31:52;;;;;;;5.60;4.20;;;;;;;16.33;31.07;93224.97;4914296;29;20035;-89
2022/03/04 06:34:17;;;;;;;5.10;3.58;;;;;;;16.34;31.12;93221.00;4920194;28;20055;-88
2022/03/04 06:36:43;;;;;;;6.60;4.47;;;;;;;16.35;30.88;93227.94;4938333;28;20260;-89
2022/03/04 06:39:08;;;;;;;5.60;4.03;;;;;;;16.35;31.14;93225.94;4921893;28;20098;-88
2022/03/04 06:41:34;;;;;;;5.72;3.50;;;;;;;16.37;31.17;93225.44;4918647;29;20106;-88
2022/03/04 06:43:59;;;;;;;5.93;3.47;;;;;;;16.41;30.71;93237.59;4903394;29;20677;-94
2022/03/04 06:46:25;;;;;;;5.93;3.67;;;;;;;16.42;31.08;93227.41;4930811;28;20409;-89
2022/03/04 06:48:50;;;;;;;7.72;4.00;;;;;;;16.42;30.89;93224.69;4953536;28;20395;-88
2022/03/04 06:51:17;;;;;;;5.57;3.75;;;;;;;16.45;31.11;93221.69;4937394;28;20045;-89
2022/03/04 06:53:42;;;;;;;4.78;3.60;;;;;;;16.47;30.83;93232.09;4934062;29;20054;-88
2022/03/04 06:56:07;;;;;;;5.68;3.50;;;;;;;16.48;30.96;93236.31;4918145;28;20055;-88
2022/03/04 06:58:33;;;;;;;4.72;3.42;;;;;;;16.51;30.75;93234.56;4934732;29;20043;-88
2022/03/04 07:00:58;;;;;;;3.95;3.10;;;;;;;16.53;30.95;93235.56;4934426;29;20395;-90
2022/03/04 07:03:24;;;;;;;5.95;3.80;;;;;;;16.55;30.93;93233.06;4917970;28;20122;-89
2022/03/04 07:05:49;;;;;;;5.35;3.40;;;;;;;16.54;30.80;93239.75;4920718;28;20042;-90
2022/03/04 07:08:15;;;;;;;6.68;3.50;;;;;;;16.54;30.94;93236.28;4937016;28;20042;-88
2022/03/04 07:10:43;;;;;;;5.57;3.78;;;;;;;16.54;30.77;93228.84;4937250;28;20055;-89
2022/03/04 07:13:09;;;;;;;5.35;3.50;;;;;;;16.57;30.69;93233.31;4921471;28;20528;-88
2022/03/04 07:15:35;;;;;;;5.07;3.33;;;;;;;16.57;30.91;93241.50;4937159;28;20043;-88
2022/03/04 07:18:02;;;;;;;4.57;3.40;;;;;;;16.60;30.84;93235.03;4937031;28;20529;-88
2022/03/04 07:20:27;;;;;;;4.78;2.70;;;;;;;16.61;30.78;93238.50;4936612;28;20798;-88
2022/03/04 07:22:53;;;;;;;4.40;3.20;;;;;;;16.65;30.94;93239.00;4934690;28;20150;-88
2022/03/04 07:25:18;;;;;;;4.63;3.38;;;;;;;16.64;30.87;93249.19;4917961;29;20035;-88
2022/03/04 07:27:44;;;;;;;4.43;2.90;;;;;;;16.67;30.95;93245.44;4918179;29;20054;-88
2022/03/04 07:30:11;;;;;;;4.43;3.33;;;;;;;16.67;30.54;93247.44;4950901;29;20031;-88
2022/03/04 07:32:37;;;;;;;4.30;3.10;;;;;;;16.70;30.55;93241.69;4917622;29;20422;-90
2022/03/04 07:35:03;;;;;;;4.30;3.10;;;;;;;16.70;31.00;93246.41;4933265;29;20035;-89
2022/03/04 07:37:29;;;;;;;6.25;3.03;;;;;;;16.71;30.75;93247.91;4917808;28;20046;-89
2022/03/04 07:39:54;;;;;;;4.85;2.95;;;;;;;16.68;30.81;93251.63;4939967;29;20049;-91
2022/03/04 07:42:21;;;;;;;3.92;2.75;;;;;;;16.73;30.80;93250.88;4923458;28;20040;-89
2022/03/04 07:44:46;;;;;;;4.15;2.80;;;;;;;16.73;30.98;93256.31;4928421;28;20047;-90
2022/03/04 07:47:12;;;;;;;4.43;2.67;;;;;;;16.73;30.97;93256.31;4949987;28;20062;-88
2022/03/04 07:49:37;;;;;;;5.35;3.15;;;;;;;16.76;30.66;93252.59;4936686;28;20042;-90
2022/03/04 07:52:03;;;;;;;5.38;3.42;;;;;;;16.76;30.50;93252.59;4917191;29;20568;-87
2022/03/04 07:54:28;;;;;;;3.88;2.78;;;;;;;16.76;30.59;93258.81;4919037;28;20205;-87
2022/03/04 07:56:55;;;;;;;4.50;3.10;;;;;;;16.79;30.63;93259.78;4951637;28;20604;-86
2022/03/04 07:59:21;;;;;;;5.05;2.90;;;;;;;16.78;30.94;93263.75;4938182;28;20584;-88
2022/03/04 08:01:46;;;;;;;6.18;2.65;;;;;;;16.79;30.83;93263.25;4921340;28;20070;-87
2022/03/04 08:04:12;;;;;;;4.18;3.22;;;;;;;16.80;30.90;93255.81;4938809;28;20394;-94
2022/03/04 08:06:38;;;;;;;4.60;2.97;;;;;;;16.82;30.82;93275.16;4938447;28;20062;-87
2022/03/04 08:09:04;;;;;;;8.23;4.70;;;;;;;16.76;30.18;93268.97;4936127;28;20683;-88
2022/03/04 08:11:29;;;;;;;8.48;4.68;;;;;;;16.76;30.07;93269.72;4933547;29;20031;-92
2022/03/04 08:13:55;;;;;;;8.00;5.40;;;;;;;16.75;29.93;93270.22;4916680;29;20047;-88
2022/03/04 08:16:20;;;;;;;8.85;4.65;;;;;;;16.75;30.15;93268.22;4933287;29;20036;-88
2022/03/04 08:18:47;;;;;;;4.40;3.20;;;;;;;16.78;30.39;93275.41;4933995;29;20043;-89
2022/03/04 08:21:12;;;;;;;5.32;3.72;;;;;;;16.79;30.57;93281.63;4937325;28;21590;-91
2022/03/04 08:23:37;;;;;;;5.00;3.75;;;;;;;16.81;30.68;93270.94;4929723;29;20518;-93
2022/03/04 08:26:04;;;;;;;5.07;3.08;;;;;;;16.80;30.33;93283.09;4966412;28;20114;-93
2022/03/04 08:28:33;;;;;;;5.88;3.58;;;;;;;16.83;30.81;93284.84;4922879;28;20035;-88
2022/03/04 08:30:58;;;;;;;5.97;3.83;;;;;;;16.84;30.72;93294.50;4934459;29;20031;-87
2022/03/04 08:33:24;;;;;;;5.45;3.83;;;;;;;16.84;30.76;93307.41;4934206;29;20042;-88
2022/03/04 08:35:50;;;;;;;6.43;3.65;;;;;;;16.86;30.73;93296.75;4934109;29;20036;-91
2022/03/04 08:38:15;;;;;;;4.53;3.17;;;;;;;16.83;30.61;93298.47;4917186;29;20046;-89
2022/03/04 08:40:41;;;;;;;5.88;3.72;;;;;;;16.84;30.82;93307.41;4928942;29;20031;-87
2022/03/04 08:43:06;;;;;;;5.35;3.33;;;;;;;16.85;30.92;93309.66;4934819;28;20035;-94
2022/03/04 08:45:32;;;;;;;5.50;3.75;;;;;;;16.86;30.91;93300.22;4919629;28;20182;-87
2022/03/04 08:47:59;;;;;;;4.85;2.97;;;;;;;16.89;30.90;93307.38;4917694;29;20028;-87
2022/03/04 08:50:25;;;;;;;10.30;4.40;;;;;;;16.81;29.99;93300.97;4903398;29;20046;-94
2022/03/04 08:52:50;;;;;;;14.20;4.97;;;;;;;16.76;30.39;93301.72;4903832;29;20039;-90
2022/03/04 08:55:16;;;;;;;11.13;6.10;;;;;;;16.74;29.86;93298.75;4901889;29;20450;-90
2022/03/04 08:57:43;;;;;;;7.95;5.57;;;;;;;16.74;29.93;93304.97;4901771;29;20035;-88
2022/03/04 09:00:09;;;;;;;10.43;5.60;;;;;;;16.70;30.17;93303.72;4917616;29;20039;-89
2022/03/04 09:02:35;;;;;;;18.58;5.78;;;;;;;16.75;30.01;93302.97;4922813;28;20516;-93
2022/03/04 09:05:00;;;;;;;14.82;5.65;;;;;;;16.79;29.99;93314.38;4935836;28;20030;-89
2022/03/04 09:07:25;;;;;;;8.23;4.35;;;;;;;16.77;29.97;93314.88;4947303;28;20049;-93
2022/03/04 09:09:51;;;;;;;6.60;4.38;;;;;;;16.75;30.33;93313.91;4937165;29;20923;-83
2022/03/04 09:12:19;;;;;;;9.20;5.15;;;;;;;16.77;30.47;93311.41;4900784;29;20039;-90
2022/03/04 09:14:45;;;;;;;7.72;4.22;;;;;;;16.78;30.44;93307.44;4913360;29;20053;-88
2022/03/04 09:17:10;;;;;;;9.18;4.03;;;;;;;16.82;30.41;93324.31;4882292;29;20035;-89
2022/03/04 09:19:36;;;;;;;6.55;4.25;;;;;;;16.85;30.59;93315.09;4914011;29;20051;-89
2022/03/04 09:22:01;;;;;;;7.88;4.28;;;;;;;16.82;30.42;93312.63;4912783;29;20099;-88
2022/03/04 09:24:28;;;;;;;6.88;4.47;;;;;;;16.83;30.66;93305.94;4891667;29;20098;-88
2022/03/04 09:26:54;;;;;;;8.40;4.25;;;;;;;16.78;30.37;93326.53;4917754;28;20126;-91
2022/03/04 09:29:20;;;;;;;4.90;3.60;;;;;;;16.82;30.82;93312.63;4918967;29;20042;-88
2022/03/04 09:31:45;;;;;;;9.65;4.20;;;;;;;16.76;30.67;93321.59;4904771;29;20036;-87
2022/03/04 09:34:11;;;;;;;6.82;3.50;;;;;;;16.81;30.74;93319.34;4919531;29;20043;-91
2022/03/04 09:36:37;;;;;;;8.32;4.05;;;;;;;16.82;30.70;93324.31;4902237;29;20035;-90
2022/03/04 09:39:03;;;;;;;5.55;3.85;;;;;;;16.77;30.52;93328.53;4919160;29;20090;-88
2022/03/04 09:41:28;;;;;;;7.18;4.70;;;;;;;16.81;30.89;93328.28;4942117;29;20047;-89
2022/03/04 09:43:54;;;;;;;11.65;4.25;;;;;;;16.76;30.89;93323.56;4938580;29;20387;-86
2022/03/04 09:46:22;;;;;;;12.50;6.65;;;;;;;16.75;30.97;93317.38;4947320;28;20031;-88
2022/03/04 09:48:49;;;;;;;21.02;9.50;;;;;;;16.80;30.90;93321.31;4901547;29;20050;-88
2022/03/04 09:51:15;;;;;;;20.00;7.88;;;;;;;16.79;30.94;93325.31;4913252;29;20043;-90
2022/03/04 09:53:41;;;;;;;55.70;16.45;;;;;;;16.74;31.03;93320.59;4920529;29;20094;-87
2022/03/04 09:56:06;;;;;;;50.90;14.38;;;;;;;16.75;30.97;93322.81;4920619;28;20050;-90
2022/03/04 09:58:32;;;;;;;33.92;12.52;;;;;;;16.74;30.72;93321.34;4946934;29;20046;-87
2022/03/04 10:00:57;;;;;;;31.65;12.02;;;;;;;16.76;30.75;93315.38;4942129;29;20058;-90
2022/03/04 10:03:29;;;;;;;32.72;12.20;;;;;;;16.74;31.16;93312.41;4927082;29;20035;-89
2022/03/04 10:05:55;;;;;;;29.90;12.02;;;;;;;16.75;31.13;93311.16;4935932;29;20043;-90
2022/03/04 10:08:21;;;;;;;27.77;12.13;;;;;;;16.80;30.85;93326.78;4932461;29;20063;-90
2022/03/04 10:10:51;;;;;;;25.85;10.63;;;;;;;16.73;31.42;93310.91;4922281;29;20070;-88
2022/03/04 10:13:17;;;;;;;;;;;;;;;16.76;30.93;93313.41;4909508;29;20091;-89
2022/03/04 10:15:54;;;;;;;33.45;11.52;;;;;;;16.75;30.90;93303.72;4916676;29;19918;-89
2022/03/04 10:18:25;;;;;;;39.33;12.23;;;;;;;16.79;31.03;93311.66;4905037;29;20038;-94
2022/03/04 10:20:50;;;;;;;24.80;11.57;;;;;;;16.76;31.22;93315.38;4917903;29;20146;-92
2022/03/04 10:23:20;;;;;;;31.50;14.65;;;;;;;16.75;30.80;93313.91;4891855;29;20391;-88
2022/03/04 10:25:47;;;;;;;31.75;13.65;;;;;;;16.75;30.97;93320.09;4931506;29;20043;-88
2022/03/04 10:28:13;;;;;;;43.38;20.85;;;;;;;16.72;31.01;93317.63;4880566;29;20048;-86
2022/03/04 10:30:42;;;;;;;62.53;31.25;;;;;;;16.73;31.52;93310.91;4873765;29;20405;-86
2022/03/04 10:33:12;;;;;;;46.85;22.55;;;;;;;16.39;28.32;93310.25;4870473;29;20499;-91
2022/03/04 10:35:38;;;;;;;45.28;21.17;;;;;;;16.09;27.37;93310.81;4867901;29;20449;-90
2022/03/04 10:38:04;;;;;;;50.33;19.48;;;;;;;15.74;26.56;93324.97;4878055;29;20043;-87
2022/03/04 10:40:36;;;;;;;42.47;18.33;;;;;;;15.68;25.91;93313.31;4879184;29;20041;-89
2022/03/04 10:43:05;;;;;;;48.05;17.30;;;;;;;15.73;26.00;93318.03;4876893;29;20048;-89
2022/03/04 10:45:33;;;;;;;91.55;24.13;;;;;;;15.85;25.66;93309.84;4879790;29;20076;-89
2022/03/04 10:47:59;;;;;;;97.10;35.85;;;;;;;16.01;26.05;93309.09;4864332;29;20140;-88
2022/03/04 10:50:38;;;;;;;98.78;38.42;;;;;;;16.05;25.94;93315.03;4885039;29;20135;-93
2022/03/04 10:53:07;;;;;;;84.88;30.00;;;;;;;16.14;26.43;93306.59;4880744;29;20040;-89
2022/03/04 10:55:40;;;;;;;45.20;23.00;;;;;;;16.22;27.87;93309.56;4890940;29;20088;-90
2022/03/04 10:58:17;;;;;;;61.53;26.30;;;;;;;16.25;27.81;93312.00;4882788;29;20046;-89
2022/03/04 11:00:49;;;;;;;54.40;24.60;;;;;;;16.29;27.84;93303.56;4906609;29;20032;-91
2022/03/04 11:03:21;;;;;;;45.92;23.08;;;;;;;16.34;28.28;93311.00;4893634;29;20031;-88
2022/03/04 11:05:47;;;;;;;41.00;24.63;;;;;;;16.35;28.54;93313.25;4916120;29;20149;-91
2022/03/04 11:08:13;;;;;;;42.92;25.33;;;;;;;16.39;28.81;93318.44;4904270;29;20038;-90
2022/03/04 11:10:38;;;;;;;45.60;23.88;;;;;;;16.45;28.83;93314.44;4931310;29;20040;-87
2022/03/04 11:13:05;;;;;;;61.65;28.13;;;;;;;16.45;28.82;93317.16;4919700;29;20047;-90
2022/03/04 11:15:30;;;;;;;59.97;28.27;;;;;;;16.48;29.04;93314.69;4906671;29;20038;-92
2022/03/04 11:17:56;;;;;;;55.97;29.90;;;;;;;16.52;28.91;93312.44;4922665;28;20411;-90
2022/03/04 11:20:24;;;;;;;75.88;31.98;;;;;;;16.53;29.64;93311.94;4956066;28;20062;-90
2022/03/04 11:22:51;;;;;;;555.25;425.63;;;;;;;16.58;29.79;93319.38;4921343;28;20043;-91
2022/03/04 11:25:16;;;;;;;167.27;104.60;;;;;;;16.63;29.33;93326.06;4903626;29;20047;-90